Главная страница
METAR-TAF:

METAR-TAF

Аэропорты :

Саннефьорд, Норвегия

широта: 59-12N, долгота: 010-16E, высота над уровнем моря: 8 м

Текущие метеонаблюдения

Эта сводка был подготовлена 18 минут назад, в 09:50 UTC
Ветер 7 Узел от южный-юго-западный
Температура 18°C
Влажность 94%
Давление 1019 hPa
Видимость: 9000 м
Рассеянная облачность на высоте 600 фута

METAR: ENTO 060950Z 21007KT 9000 BKN006 18/17 Q1019 TEMPO SCT006 BKN015

Время: 12:08 (10:08 UTC)

Прогноз

Прогноз действительный с 06-го 09 UTC до 07-го 06 UTC
Ветер 10 Узел от южный-юго-западный
Видимость 10 км и более
Рассеянная облачность на высоте 400 фута
изменения
С 06-го 10 UTC до 06-го 12 UTC
Отдельные облака на высоте 800 фута
Рассеянная облачность на высоте 6000 фута

TAF: ENTO 0609/0706 20010KT 9999 BKN004 BECMG 0610/0612 SCT008 BKN060

Метеонаблюдения и прогнозы для более 4000 аэропортов (сводки METAR и TAF).

Имеющиеся станции представлены на карте желтыми и красными точками.

Чтобы увидеть название станции, наведите на нее мышь.

Затем щелкните, чтобы увидеть метеонаблюдения и метеопрогнозы.

Управление картой: чтобы увеличить масштаб, щелкните зеленые кнопки с черным крестиком; чтобы уменьшить масштаб, щелкните зеленую кнопку с тире; для просмотра соседних карт щелкайте зеленые стрелки.


METAR-TAF: